VIV7041 MMSP-MMSM
Flight info
| Callsign | VIV7041 |
|---|---|
| Flight time | 0h 28m |
| Altitude | 35000 |
| Route | SLP4A SLP UJ45 QET UT162 TOREO TOREO1A |
| Aircraft | A320/M-SDE3FGHIRWY/LB1 |
Departure
| Time | 2026-05-04 15:56 |
|---|---|
| Airport | Ponciano Arriaga International Airport (MMSP) |
Arrival
| Time | 2026-05-04 16:24 |
|---|---|
| Airport | Felipe Ángeles International Airport (MMSM) |
| Time | Latitude | Longitude | Altitude | Speed | Heading |
|---|---|---|---|---|---|
| 2026-05-04 15:32 | 22.25675 | -100.93634 | 6037 ft | 0 kts | 239° |
| 2026-05-04 15:48 | 22.25687 | -100.93607 | 6037 ft | 2 kts | 255° |
| 2026-05-04 15:49 | 22.25690 | -100.93590 | 6037 ft | 2 kts | 282° |
| 2026-05-04 15:49 | 22.25684 | -100.93574 | 6037 ft | 2 kts | 320° |
| 2026-05-04 15:49 | 22.25675 | -100.93566 | 6037 ft | 1 kts | 330° |
| 2026-05-04 15:49 | 22.25673 | -100.93565 | 6037 ft | 0 kts | 330° |
| 2026-05-04 15:51 | 22.25675 | -100.93567 | 6037 ft | 2 kts | 332° |
| 2026-05-04 15:51 | 22.25722 | -100.93530 | 6037 ft | 17 kts | 42° |
| 2026-05-04 15:52 | 22.25871 | -100.93510 | 6037 ft | 24 kts | 360° |
| 2026-05-04 15:52 | 22.26043 | -100.93510 | 6036 ft | 25 kts | 0° |
| 2026-05-04 15:52 | 22.26214 | -100.93577 | 6038 ft | 28 kts | 330° |
| 2026-05-04 15:52 | 22.26384 | -100.93685 | 6037 ft | 29 kts | 329° |
| 2026-05-04 15:53 | 22.26558 | -100.93798 | 6036 ft | 30 kts | 329° |
| 2026-05-04 15:53 | 22.26741 | -100.93916 | 6035 ft | 31 kts | 329° |
| 2026-05-04 15:53 | 22.26927 | -100.94035 | 6037 ft | 31 kts | 329° |
| 2026-05-04 15:53 | 22.27117 | -100.94156 | 6039 ft | 31 kts | 329° |
| 2026-05-04 15:54 | 22.27281 | -100.94300 | 6038 ft | 26 kts | 302° |
| 2026-05-04 15:54 | 22.27319 | -100.94301 | 6039 ft | 6 kts | 107° |
| 2026-05-04 15:54 | 22.27287 | -100.94266 | 6039 ft | 7 kts | 147° |
| 2026-05-04 15:54 | 22.27240 | -100.94235 | 6039 ft | 9 kts | 149° |
| 2026-05-04 15:55 | 22.27061 | -100.94120 | 6038 ft | 68 kts | 149° |
| 2026-05-04 15:55 | 22.26448 | -100.93728 | 6037 ft | 135 kts | 149° |
| 2026-05-04 15:55 | 22.25482 | -100.93113 | 6079 ft | 184 kts | 149° |
| 2026-05-04 15:55 | 22.24274 | -100.92353 | 6478 ft | 219 kts | 150° |
| 2026-05-04 15:56 | 22.22906 | -100.91455 | 7186 ft | 240 kts | 149° |
| 2026-05-04 15:56 | 22.21428 | -100.90431 | 7786 ft | 266 kts | 149° |
| 2026-05-04 15:56 | 22.19801 | -100.89294 | 8393 ft | 290 kts | 149° |
| 2026-05-04 15:56 | 22.18042 | -100.88071 | 9009 ft | 311 kts | 149° |
| 2026-05-04 15:57 | 22.16160 | -100.86784 | 9616 ft | 329 kts | 152° |
| 2026-05-04 15:57 | 22.14052 | -100.85719 | 10219 ft | 342 kts | 161° |
| 2026-05-04 15:57 | 22.11776 | -100.84804 | 10778 ft | 357 kts | 163° |
| 2026-05-04 15:57 | 22.09384 | -100.83916 | 11336 ft | 370 kts | 163° |
| 2026-05-04 15:58 | 22.06897 | -100.83021 | 11911 ft | 384 kts | 163° |
| 2026-05-04 15:58 | 22.04324 | -100.82091 | 12495 ft | 396 kts | 163° |
| 2026-05-04 15:58 | 22.01677 | -100.81118 | 13089 ft | 407 kts | 162° |
| 2026-05-04 15:58 | 21.99001 | -100.80115 | 13686 ft | 418 kts | 161° |
| 2026-05-04 15:59 | 21.96224 | -100.79059 | 14252 ft | 428 kts | 161° |
| 2026-05-04 15:59 | 21.93395 | -100.77976 | 14795 ft | 437 kts | 160° |
| 2026-05-04 15:59 | 21.90505 | -100.76867 | 15375 ft | 445 kts | 160° |
| 2026-05-04 15:59 | 21.87560 | -100.75738 | 15977 ft | 453 kts | 160° |
| 2026-05-04 16:00 | 21.84598 | -100.74541 | 16695 ft | 457 kts | 158° |
| 2026-05-04 16:00 | 21.81639 | -100.73243 | 17440 ft | 461 kts | 156° |
| 2026-05-04 16:00 | 21.78683 | -100.71878 | 18197 ft | 465 kts | 155° |
| 2026-05-04 16:00 | 21.75685 | -100.70469 | 18619 ft | 477 kts | 155° |
| 2026-05-04 16:01 | 21.72605 | -100.69025 | 19072 ft | 487 kts | 155° |
| 2026-05-04 16:01 | 21.69471 | -100.67573 | 19679 ft | 493 kts | 156° |
| 2026-05-04 16:01 | 21.66351 | -100.66149 | 20360 ft | 497 kts | 156° |
| 2026-05-04 16:01 | 21.63147 | -100.64703 | 21073 ft | 501 kts | 156° |
| 2026-05-04 16:02 | 21.59913 | -100.63256 | 21795 ft | 505 kts | 157° |
| 2026-05-04 16:02 | 21.56651 | -100.61802 | 22550 ft | 509 kts | 157° |
| 2026-05-04 16:02 | 21.50078 | -100.58871 | 24020 ft | 514 kts | 157° |
| 2026-05-04 16:03 | 21.46775 | -100.57390 | 24677 ft | 514 kts | 157° |
| 2026-05-04 16:03 | 21.43478 | -100.55907 | 25350 ft | 513 kts | 157° |
| 2026-05-04 16:03 | 21.40199 | -100.54427 | 26039 ft | 510 kts | 157° |
| 2026-05-04 16:03 | 21.36947 | -100.52958 | 26739 ft | 504 kts | 157° |
| 2026-05-04 16:04 | 21.33741 | -100.51515 | 27567 ft | 495 kts | 158° |
| 2026-05-04 16:04 | 21.27569 | -100.48750 | 29318 ft | 473 kts | 158° |
| 2026-05-04 16:04 | 21.24567 | -100.47408 | 30232 ft | 462 kts | 158° |
| 2026-05-04 16:05 | 21.21640 | -100.46101 | 31024 ft | 451 kts | 158° |
| 2026-05-04 16:05 | 21.18781 | -100.44823 | 31857 ft | 439 kts | 159° |
| 2026-05-04 16:05 | 21.13264 | -100.42348 | 33327 ft | 418 kts | 159° |
| 2026-05-04 16:06 | 21.10630 | -100.41164 | 34181 ft | 404 kts | 159° |
| 2026-05-04 16:06 | 21.03676 | -100.38054 | 34802 ft | 408 kts | 160° |
| 2026-05-04 16:07 | 21.00193 | -100.36503 | 35039 ft | 412 kts | 160° |
| 2026-05-04 16:07 | 20.92044 | -100.32872 | 35096 ft | 435 kts | 160° |
| 2026-05-04 16:08 | 20.89227 | -100.31611 | 35094 ft | 443 kts | 160° |
| 2026-05-04 16:08 | 20.80452 | -100.27697 | 35262 ft | 468 kts | 159° |
| 2026-05-04 16:09 | 20.74339 | -100.24974 | 35339 ft | 484 kts | 159° |
| 2026-05-04 16:09 | 20.68059 | -100.22183 | 35395 ft | 501 kts | 159° |
| 2026-05-04 16:10 | 20.62104 | -100.18294 | 35386 ft | 497 kts | 136° |
| 2026-05-04 16:11 | 20.56562 | -100.09348 | 34065 ft | 483 kts | 117° |
| 2026-05-04 16:11 | 20.54962 | -100.06188 | 33263 ft | 485 kts | 117° |
| 2026-05-04 16:12 | 20.50126 | -99.96669 | 30968 ft | 487 kts | 117° |
| 2026-05-04 16:12 | 20.45267 | -99.87244 | 28600 ft | 484 kts | 117° |
| 2026-05-04 16:13 | 20.42048 | -99.80986 | 27081 ft | 478 kts | 117° |
| 2026-05-04 16:13 | 20.38869 | -99.74809 | 25664 ft | 472 kts | 117° |
| 2026-05-04 16:14 | 20.35730 | -99.68707 | 24306 ft | 466 kts | 117° |
| 2026-05-04 16:14 | 20.32528 | -99.62743 | 22886 ft | 461 kts | 122° |
| 2026-05-04 16:15 | 20.27146 | -99.54442 | 20690 ft | 450 kts | 123° |
| 2026-05-04 16:16 | 20.23600 | -99.49019 | 19281 ft | 443 kts | 123° |
| 2026-05-04 16:16 | 20.20236 | -99.40239 | 17147 ft | 427 kts | 103° |
| 2026-05-04 16:17 | 20.16772 | -99.35257 | 16139 ft | 443 kts | 149° |
| 2026-05-04 16:18 | 20.07958 | -99.31831 | 16005 ft | 453 kts | 157° |
| 2026-05-04 16:18 | 20.05070 | -99.30490 | 16008 ft | 453 kts | 154° |
| 2026-05-04 16:19 | 19.96640 | -99.26064 | 16052 ft | 452 kts | 153° |
| 2026-05-04 16:19 | 19.91084 | -99.23249 | 15642 ft | 430 kts | 159° |
| 2026-05-04 16:20 | 19.82470 | -99.21929 | 14244 ft | 408 kts | 170° |
| 2026-05-04 16:20 | 19.77430 | -99.19425 | 12924 ft | 400 kts | 148° |
| 2026-05-04 16:21 | 19.70510 | -99.14685 | 10824 ft | 378 kts | 147° |
| 2026-05-04 16:22 | 19.66901 | -99.11109 | 9267 ft | 351 kts | 112° |
| 2026-05-04 16:22 | 19.68849 | -99.05237 | 8786 ft | 282 kts | 18° |
| 2026-05-04 16:23 | 19.72551 | -99.02688 | 7549 ft | 178 kts | 48° |
| 2026-05-04 16:24 | 19.74130 | -99.00755 | 7378 ft | 16 kts | 49° |
| 2026-05-04 16:25 | 19.74354 | -99.00636 | 7377 ft | 18 kts | 343° |
| 2026-05-04 16:26 | 19.74075 | -99.01074 | 7377 ft | 22 kts | 228° |
| 2026-05-04 16:26 | 19.73932 | -99.01414 | 7376 ft | 15 kts | 296° |
| 2026-05-04 16:27 | 19.73828 | -99.01595 | 7376 ft | 16 kts | 229° |
| 2026-05-04 16:28 | 19.73617 | -99.01851 | 7377 ft | 19 kts | 229° |
| 2026-05-04 16:28 | 19.73384 | -99.02192 | 7377 ft | 8 kts | 326° |
| 2026-05-04 16:29 | 19.73421 | -99.02224 | 7377 ft | 0 kts | 319° |